Sahiwal Weather



Sahiwal's Current Weather

Temprature 25.92o clear sky

clear sky

Rain: 0 %

Min Temprature25.92o
Max Temprature25.92o
Humidity73
Wind Speed3.36 m/h
Sun Rise05:57:53
Sun Set18:00:12
Current Time: 26-Sep-2022 07:46:30
Lat/Lon: 30.6667, 73.1




Sahiwal's Geo Location



Sahiwal's Weather Forecast

Time Overall Temp Min Temp Max Temp Humidity Wind Speed Rain
26-Sep-2022 (Mon)
08:00:00 light rain 25.920 25.920 25.920 73 3.36 m/h 25 %
11:00:00 clear sky 28.290 28.290 33.030 63 2.47 m/h 0 %
14:00:00 clear sky 32.740 32.740 36.150 46 2.14 m/h 0 %
17:00:00 clear sky 35.080 35.080 35.080 34 1.98 m/h 0 %
20:00:00 light rain 28.540 28.540 28.540 51 2.2 m/h 50 %
23:00:00 clear sky 26.540 26.540 26.540 60 2.01 m/h 0 %
27-Sep-2022 (Tue)
02:00:00 clear sky 25.450 25.450 25.450 65 2.23 m/h 0 %
05:00:00 clear sky 24.910 24.910 24.910 69 2.46 m/h 0 %
08:00:00 clear sky 28.840 28.840 28.840 59 2.51 m/h 0 %
11:00:00 clear sky 35.400 35.400 35.400 31 2.66 m/h 0 %
14:00:00 clear sky 37.960 37.960 37.960 22 3.45 m/h 0 %
17:00:00 few clouds 36.540 36.540 36.540 22 3.15 m/h 0 %
20:00:00 broken clouds 30.790 30.790 30.790 31 1.44 m/h 0 %
23:00:00 scattered clouds 27.530 27.530 27.530 45 2.7 m/h 0 %
28-Sep-2022 (Wed)
02:00:00 clear sky 26.240 26.240 26.240 49 2.67 m/h 0 %
05:00:00 clear sky 25.520 25.520 25.520 49 2.12 m/h 0 %
08:00:00 clear sky 29.950 29.950 29.950 35 2.99 m/h 0 %
11:00:00 clear sky 36.280 36.280 36.280 23 4.09 m/h 0 %
14:00:00 clear sky 38.550 38.550 38.550 19 4.02 m/h 0 %
17:00:00 clear sky 36.410 36.410 36.410 22 4.34 m/h 0 %
20:00:00 scattered clouds 30.360 30.360 30.360 31 3.38 m/h 0 %
23:00:00 few clouds 28.470 28.470 28.470 36 2.94 m/h 0 %
29-Sep-2022 (Thu)
02:00:00 clear sky 26.050 26.050 26.050 42 1.89 m/h 0 %
05:00:00 clear sky 25.030 25.030 25.030 43 1.96 m/h 0 %
08:00:00 clear sky 29.110 29.110 29.110 30 2.51 m/h 0 %
11:00:00 clear sky 36.360 36.360 36.360 21 3.91 m/h 0 %
14:00:00 clear sky 38.390 38.390 38.390 18 4.21 m/h 0 %
17:00:00 clear sky 36.130 36.130 36.130 22 4.21 m/h 0 %
20:00:00 few clouds 30.070 30.070 30.070 31 3.64 m/h 0 %
23:00:00 clear sky 28.270 28.270 28.270 34 3.52 m/h 0 %
30-Sep-2022 (Fri)
02:00:00 clear sky 26.410 26.410 26.410 36 2.17 m/h 0 %
05:00:00 clear sky 24.520 24.520 24.520 38 0.97 m/h 0 %
08:00:00 clear sky 29.000 29.000 29.000 30 2.37 m/h 0 %
11:00:00 clear sky 36.490 36.490 36.490 21 3.93 m/h 0 %
14:00:00 clear sky 38.580 38.580 38.580 17 4.24 m/h 0 %
17:00:00 clear sky 36.250 36.250 36.250 20 4.01 m/h 0 %
20:00:00 clear sky 29.940 29.940 29.940 30 3.55 m/h 0 %
23:00:00 clear sky 28.060 28.060 28.060 34 3.24 m/h 0 %
01-Oct-2022 (Sat)
02:00:00 clear sky 26.260 26.260 26.260 38 2.03 m/h 0 %
05:00:00 clear sky 24.640 24.640 24.640 44 0.9 m/h 0 %

Famous Cities (61)